createdAt,value
2023-02-25T00:02:35.987Z,95019.84
2023-02-25T00:07:56.687Z,95012.78
2023-02-25T00:13:18.626Z,95009.13
2023-02-25T00:18:44.244Z,95009.88
2023-02-25T00:24:15.835Z,95020.75
2023-02-25T00:29:37.899Z,95022.78
2023-02-25T00:34:58.627Z,95023.09
2023-02-25T00:40:19.592Z,95034.16
2023-02-25T00:45:40.767Z,95031.97
2023-02-25T00:51:09.973Z,95024.94
2023-02-25T00:56:30.819Z,95022.38
2023-02-25T01:01:51.858Z,95031.78
2023-02-25T01:07:13.962Z,95026.69
2023-02-25T01:12:34.839Z,95024.91
2023-02-25T01:17:55.477Z,95030.06
2023-02-25T01:23:18.352Z,95024.78
2023-02-25T01:28:39.073Z,95023.00
2023-02-25T01:34:01.006Z,95031.22
2023-02-25T01:39:26.280Z,95035.97
2023-02-25T01:45:18.461Z,95030.84
2023-02-25T01:50:48.076Z,95029.09
2023-02-25T01:56:12.213Z,95032.38
2023-02-25T02:01:36.693Z,95039.16
2023-02-25T02:07:00.216Z,95039.28
2023-02-25T02:12:21.084Z,95031.34
2023-02-25T02:18:02.844Z,95029.28
2023-02-25T02:23:46.970Z,95027.22
2023-02-25T02:29:14.153Z,95024.66
2023-02-25T02:34:55.136Z,95025.63
2023-02-25T02:40:41.342Z,95037.56
2023-02-25T02:46:16.102Z,95022.78
2023-02-25T02:52:00.211Z,95036.09
2023-02-25T02:57:23.756Z,95037.72
2023-02-25T03:02:58.379Z,95048.03
2023-02-25T03:08:27.768Z,95054.41
2023-02-25T03:13:50.745Z,95058.88
2023-02-25T03:19:23.610Z,95059.81
2023-02-25T03:24:55.753Z,95062.53
2023-02-25T03:30:41.863Z,95062.81
2023-02-25T03:36:10.924Z,95068.09
2023-02-25T03:41:36.193Z,95071.38
2023-02-25T03:46:58.453Z,95078.94
2023-02-25T03:52:23.293Z,95068.53
2023-02-25T03:57:51.097Z,95066.91
2023-02-25T04:03:12.777Z,95072.06
2023-02-25T04:08:33.475Z,95081.78
2023-02-25T04:13:55.114Z,95086.13
2023-02-25T04:19:17.097Z,95071.09
2023-02-25T04:24:38.152Z,95070.81
2023-02-25T04:29:59.542Z,95063.38
2023-02-25T04:35:20.471Z,95058.63
2023-02-25T04:40:41.266Z,95067.03
2023-02-25T04:46:02.179Z,95078.25
2023-02-25T04:51:22.919Z,95073.91
2023-02-25T04:56:43.536Z,95066.19
2023-02-25T05:02:04.329Z,95064.19
2023-02-25T05:07:25.037Z,95062.53
2023-02-25T05:12:45.649Z,95064.59
2023-02-25T05:18:06.635Z,95064.19
2023-02-25T05:23:27.451Z,95067.16
2023-02-25T05:28:56.814Z,95070.09
2023-02-25T05:34:18.062Z,95062.00
2023-02-25T05:39:38.963Z,95069.06
2023-02-25T05:45:00.112Z,95074.06
2023-02-25T05:50:20.678Z,95084.75
2023-02-25T05:55:45.091Z,95093.81
2023-02-25T06:01:14.860Z,95094.50
2023-02-25T06:06:35.730Z,95103.28
2023-02-25T06:11:57.753Z,95114.94
2023-02-25T06:17:18.821Z,95108.31
2023-02-25T06:22:39.485Z,95112.25
2023-02-25T06:28:01.561Z,95111.16
2023-02-25T06:33:23.019Z,95101.00
2023-02-25T06:38:46.084Z,95110.50
2023-02-25T06:44:06.911Z,95115.25
2023-02-25T06:49:27.610Z,95121.72
2023-02-25T06:54:49.575Z,95119.84
2023-02-25T07:00:11.025Z,95134.63
2023-02-25T07:05:31.872Z,95136.81
2023-02-25T07:10:52.626Z,95133.28
2023-02-25T07:16:14.695Z,95135.72
2023-02-25T07:21:35.822Z,95142.78
2023-02-25T07:26:56.595Z,95143.19
2023-02-25T07:32:17.359Z,95159.34
2023-02-25T07:37:39.422Z,95159.75
2023-02-25T07:43:00.030Z,95155.53
2023-02-25T07:48:21.612Z,95157.00
2023-02-25T07:53:45.073Z,95162.41
2023-02-25T07:59:07.872Z,95164.31
2023-02-25T08:04:30.139Z,95179.00
2023-02-25T08:09:51.297Z,95173.84
2023-02-25T08:15:12.787Z,95175.72
2023-02-25T08:20:33.552Z,95173.97
2023-02-25T08:25:55.766Z,95188.34
2023-02-25T08:31:17.764Z,95213.88
2023-02-25T08:36:38.357Z,95223.41
2023-02-25T08:41:59.118Z,95230.97
2023-02-25T08:47:19.930Z,95216.16
2023-02-25T08:52:42.311Z,95227.16
2023-02-25T08:58:03.399Z,95234.16
2023-02-25T09:03:24.816Z,95237.84
2023-02-25T09:08:45.697Z,95242.34
2023-02-25T09:14:06.786Z,95247.91
2023-02-25T09:19:27.753Z,95253.09
2023-02-25T09:24:48.607Z,95257.63
2023-02-25T09:30:10.061Z,95263.50
2023-02-25T09:35:31.738Z,95260.63
2023-02-25T09:40:52.973Z,95262.97
2023-02-25T09:46:19.117Z,95265.53
2023-02-25T09:51:57.869Z,95270.75
2023-02-25T09:57:21.624Z,95273.72
2023-02-25T10:02:58.425Z,95282.28
2023-02-25T10:08:44.353Z,95285.34
2023-02-25T10:14:05.252Z,95286.59
2023-02-25T10:19:50.916Z,95288.34
2023-02-25T10:25:16.910Z,95289.78
2023-02-25T10:30:58.300Z,95289.63
2023-02-25T10:36:48.003Z,95287.81
2023-02-25T10:42:11.124Z,95278.63
2023-02-25T10:47:36.392Z,95291.56
2023-02-25T10:53:04.011Z,95285.78
2023-02-25T10:58:40.401Z,95290.94
2023-02-25T11:04:03.458Z,95300.78
2023-02-25T11:09:24.402Z,95307.91
2023-02-25T11:14:45.406Z,95312.16
2023-02-25T11:20:20.899Z,95329.59
2023-02-25T11:25:43.770Z,95320.34
2023-02-25T11:31:11.761Z,95315.34
2023-02-25T11:36:35.105Z,95318.78
2023-02-25T11:41:59.724Z,95327.13
2023-02-25T11:47:26.765Z,95323.31
2023-02-25T11:53:09.129Z,95317.59
2023-02-25T11:58:54.630Z,95326.94
2023-02-25T12:04:27.465Z,95323.38
2023-02-25T12:10:19.807Z,95314.31
2023-02-25T12:15:55.762Z,95312.84
2023-02-25T12:21:43.798Z,95326.50
2023-02-25T12:27:38.783Z,95326.19
2023-02-25T12:33:12.022Z,95333.78
2023-02-25T12:39:00.713Z,95333.91
2023-02-25T12:44:43.235Z,95340.28
2023-02-25T12:50:23.231Z,95351.53
2023-02-25T12:56:02.601Z,95352.97
2023-02-25T13:01:48.264Z,95355.44
2023-02-25T13:07:30.822Z,95349.66
2023-02-25T13:12:53.334Z,95357.25
2023-02-25T13:18:51.822Z,95357.44
2023-02-25T13:24:21.844Z,95350.22
2023-02-25T13:30:05.451Z,95348.06
2023-02-25T13:35:48.075Z,95345.44
2023-02-25T13:41:35.222Z,95350.91
2023-02-25T13:47:14.844Z,95355.59
2023-02-25T13:53:13.403Z,95357.91
2023-02-25T13:58:55.622Z,95365.34
2023-02-25T14:04:39.635Z,95358.38
2023-02-25T14:10:13.280Z,95379.00
2023-02-25T14:15:49.330Z,95370.69
2023-02-25T14:21:28.968Z,95367.28
2023-02-25T14:27:33.265Z,95375.47
2023-02-25T14:33:20.922Z,95378.31
2023-02-25T14:39:00.575Z,95392.22
2023-02-25T14:44:58.833Z,95395.53
2023-02-25T14:50:30.659Z,95401.56
2023-02-25T14:56:00.808Z,95412.03
2023-02-25T15:01:24.837Z,95435.44
2023-02-25T15:06:59.197Z,95434.38
2023-02-25T15:13:08.270Z,95433.88
2023-02-25T15:19:00.901Z,95445.59
2023-02-25T15:24:27.877Z,95448.19
2023-02-25T15:29:57.773Z,95459.81
2023-02-25T15:35:35.424Z,95450.75
2023-02-25T15:40:56.924Z,95467.03
2023-02-25T15:46:23.697Z,95453.22
2023-02-25T15:51:48.736Z,95470.03
2023-02-25T15:57:09.820Z,95470.28
2023-02-25T16:02:39.426Z,95492.44
2023-02-25T16:08:22.890Z,95503.59
2023-02-25T16:13:45.746Z,95517.28
2023-02-25T16:19:10.411Z,95532.94
2023-02-25T16:24:32.016Z,95549.78
2023-02-25T16:30:01.439Z,95555.06
2023-02-25T16:35:33.869Z,95567.06
2023-02-25T16:40:55.289Z,95578.53
2023-02-25T16:46:22.427Z,95585.25
2023-02-25T16:51:45.425Z,95591.19
2023-02-25T16:57:18.789Z,95601.47
2023-02-25T17:03:04.692Z,95602.66
2023-02-25T17:08:25.426Z,95601.94
2023-02-25T17:13:50.070Z,95606.28
2023-02-25T17:19:17.560Z,95607.31
2023-02-25T17:24:40.602Z,95611.16
2023-02-25T17:30:01.592Z,95617.94
2023-02-25T17:35:22.504Z,95628.38
2023-02-25T17:40:44.808Z,95629.31
2023-02-25T17:46:38.215Z,95643.47
2023-02-25T17:52:06.646Z,95648.72
2023-02-25T17:57:31.279Z,95656.91
2023-02-25T18:03:25.367Z,95660.28
2023-02-25T18:08:52.760Z,95664.28
2023-02-25T18:14:30.754Z,95661.47
2023-02-25T18:19:55.355Z,95672.22
2023-02-25T18:25:33.304Z,95669.38
2023-02-25T18:30:55.465Z,95671.78
2023-02-25T18:36:23.555Z,95683.53
2023-02-25T18:41:45.087Z,95694.94
2023-02-25T18:47:05.989Z,95693.91
2023-02-25T18:52:26.978Z,95700.78
2023-02-25T18:57:48.083Z,95722.72
2023-02-25T19:03:15.776Z,95729.38
2023-02-25T19:08:36.747Z,95730.91
2023-02-25T19:13:57.616Z,95744.59
2023-02-25T19:19:18.599Z,95752.38
2023-02-25T19:24:39.555Z,95756.59
2023-02-25T19:30:00.353Z,95756.75
2023-02-25T19:35:21.583Z,95766.41
2023-02-25T19:40:44.243Z,95768.25
2023-02-25T19:46:09.534Z,95785.13
2023-02-25T19:51:30.499Z,95786.47
2023-02-25T19:56:51.954Z,95796.72
2023-02-25T20:02:13.610Z,95792.13
2023-02-25T20:07:35.043Z,95802.72
2023-02-25T20:12:56.060Z,95815.38
2023-02-25T20:18:16.738Z,95820.91
2023-02-25T20:23:39.580Z,95826.38
2023-02-25T20:29:01.151Z,95837.16
2023-02-25T20:34:23.655Z,95838.91
2023-02-25T20:39:51.072Z,95840.56
2023-02-25T20:45:15.848Z,95855.88
2023-02-25T20:50:38.315Z,95860.56
2023-02-25T20:55:59.172Z,95858.03
2023-02-25T21:01:19.874Z,95877.81
2023-02-25T21:06:40.489Z,95883.69
2023-02-25T21:12:02.421Z,95883.88
2023-02-25T21:17:23.182Z,95887.56
2023-02-25T21:22:43.963Z,95883.03
2023-02-25T21:28:04.674Z,95882.13
2023-02-25T21:33:25.344Z,95874.75
2023-02-25T21:38:46.066Z,95880.50
2023-02-25T21:44:07.712Z,95878.53
2023-02-25T21:49:30.823Z,95887.91
2023-02-25T21:54:52.875Z,95886.03
2023-02-25T22:00:14.431Z,95898.84
2023-02-25T22:05:35.086Z,95900.34
2023-02-25T22:10:55.832Z,95908.25
2023-02-25T22:16:17.957Z,95898.09
2023-02-25T22:21:39.279Z,95904.25
2023-02-25T22:27:00.732Z,95910.97
2023-02-25T22:32:21.630Z,95905.34
2023-02-25T22:37:42.430Z,95910.13
2023-02-25T22:43:03.109Z,95911.22
2023-02-25T22:48:23.790Z,95908.56
2023-02-25T22:53:44.465Z,95919.94
2023-02-25T22:59:05.755Z,95934.69
2023-02-25T23:04:27.823Z,95941.94
2023-02-25T23:09:49.891Z,95946.41
2023-02-25T23:15:11.025Z,95941.75
2023-02-25T23:20:34.287Z,95941.28
2023-02-25T23:25:55.125Z,95942.56
2023-02-25T23:31:20.543Z,95949.06
2023-02-25T23:36:43.510Z,95948.56
2023-02-25T23:42:04.845Z,95950.47
2023-02-25T23:47:25.438Z,95944.53
2023-02-25T23:52:46.707Z,95951.81
2023-02-25T23:58:07.824Z,95954.38
